Lynn Township, Michigan
Current Conditions -  °F | °C
As of 10:57 AM on Friday 19 Dec 2014 (Local Time) from KPHN Reporting Station
Overcast Overcast  
Wind Chill: 21°   Ceiling: 2900
Heat Index: 28°   Visibility: 10mi
Dew Point: 21°   Wind: 7mph
Humidity: 74%   Direction: 290°WNW
Pressure: 30.27"   Gusts: NA
Location:  43.127°N, 82.8328°W
Report Text: KPHN 191557Z AUTO 29006KT 10SM OVC029 M02/M06 A3027 RMK AO2
Loading
Personal Weather Stations






























Interactive Weather Map New forecast layout! Learn more

10-Day Weather Forecast

Advertisements
Track Severe Weather on mobile